This is the latest recevied weather packets stored in our database for station/object DO7ZT-13. If no packets are shown the sender has not sent any weather packets the latest 10 day(s).
| Time | Temp. | Humidity | Pressure | Rain* | Wind** | Luminosity | Snow |
|---|---|---|---|---|---|---|---|
| 1777612534 | 11.11° C | 57% | 1029 hPa | 0 mm | 0 m/s | - | - |
| 1777612222 | 10° C | 64% | 1029 hPa | 0 mm | 0 m/s | - | - |
| 1777611909 | 7.78° C | 68% | 1029 hPa | 0 mm | 0 m/s | - | - |
| 1777611622 | 7.78° C | 71% | 1029.1 hPa | 0 mm | 0 m/s | - | - |
| 1777611309 | 7.22° C | 74% | 1029.1 hPa | 0 mm | 0.45 m/s, 150° | - | - |
| 1777611021 | 7.22° C | 69% | 1029.1 hPa | 0 mm | 0 m/s | - | - |
| 1777610709 | 7.22° C | 69% | 1028.9 hPa | 0 mm | 0.45 m/s, 150° | - | - |
| 1777610422 | 7.78° C | 62% | 1028.9 hPa | 0 mm | 0 m/s | - | - |
| 1777610109 | 7.22° C | 65% | 1028.9 hPa | 0 mm | 0 m/s | - | - |
| 1777609822 | 7.22° C | 69% | 1028.9 hPa | 0 mm | 0 m/s | - | - |
| 1777609509 | 7.22° C | 66% | 1028.9 hPa | 0 mm | 0 m/s | - | - |
| 1777609222 | 6.11° C | 67% | 1028.9 hPa | 0 mm | 0 m/s | - | - |
| 1777608909 | 5° C | 73% | 1028.8 hPa | 0 mm | 0 m/s | - | - |
| 1777608622 | 3.89° C | 79% | 1028.8 hPa | 0 mm | 0.45 m/s, 126° | - | - |
| 1777608309 | 3.89° C | 81% | 1028.8 hPa | 0 mm | 0 m/s | - | - |
| 1777608022 | 2.78° C | 80% | 1028.9 hPa | 0 mm | 0.45 m/s, 132° | - | - |
| 1777607709 | 2.78° C | 82% | 1028.9 hPa | 0 mm | 0.45 m/s, 132° | - | - |
| 1777607422 | 2.78° C | 83% | 1028.9 hPa | 0 mm | 0 m/s | - | - |
| 1777607109 | 2.78° C | 82% | 1028.9 hPa | 0 mm | 0.45 m/s, 132° | - | - |
| 1777606822 | 2.78° C | 82% | 1028.9 hPa | 0 mm | 0 m/s | - | - |
| 1777606509 | 2.78° C | 84% | 1028.9 hPa | 0 mm | 0.89 m/s, 144° | - | - |
| 1777606222 | 2.78° C | 83% | 1028.8 hPa | 0 mm | 0.89 m/s, 144° | - | - |
| 1777605909 | 2.78° C | 81% | 1028.8 hPa | 0 mm | 0.45 m/s, 144° | - | - |
| 1777605622 | 2.78° C | 80% | 1028.8 hPa | 0 mm | 0.89 m/s, 144° | - | - |
| 1777605309 | 2.78° C | 79% | 1028.9 hPa | 0 mm | 0.89 m/s, 150° | - | - |
* Rain latest hour (hover to see other rain measurements)
** Current wind speed in m/s (hover to see current wind gust speed)